Landis, Canada
Current Conditions -  °F | °C
As of 9:00 PM on Monday 20 Oct 2014 (Local Time) from CYQW Reporting Station
Clear Clear  
Wind Chill: 50°   Ceiling: Unl
Heat Index: 50°   Visibility: 9mi
Dew Point: 36°   Wind: 10mph
Humidity: 58%   Direction: 120°ESE
Pressure: 29.6"   Gusts: NA
Location:  52.2°N, 108.45°W
Report Text: CYQW 210300Z AUTO 12009KT 9SM CLR 10/02 A2960 RMK SLP038 DENSITY ALT 1900FT
Loading
Personal Weather Stations






























Interactive Weather Map
Tropical Storm Tracking
New forecast layout! Learn more

10-Day Weather Forecast

Advertisements
Track Severe Weather on mobile